Terminal Aerodrome Forecast
Issued by NWS Wilmington, OH

Current Version | Previous Version | Graphics & Text | Print | Product List | Glossary Off
Versions: 1 2 3 4 5 6 7 8 9 10 11 12 13 14 15 16 17 18

000
FTUS41 KILN 221120
TAFCMH
TAF
KCMH 221120Z 2212/2312 32008KT P6SM OVC035
      TEMPO 2212/2214 BKN025
     FM221500 34010KT P6SM SCT050
     FM222300 VRB03KT P6SM SCT250=

USA.gov is the U.S. government's official web portal to all federal, state and local government web resources and services.